createdAt,value
2018-08-02T00:00:03.120Z,3.70
2018-08-02T00:01:03.155Z,4.00
2018-08-02T00:02:03.193Z,3.90
2018-08-02T00:03:03.230Z,4.20
2018-08-02T00:04:03.268Z,3.90
2018-08-02T00:05:03.306Z,3.80
2018-08-02T00:06:03.344Z,4.00
2018-08-02T00:07:03.381Z,4.10
2018-08-02T00:08:03.419Z,4.00
2018-08-02T00:09:03.458Z,3.60
2018-08-02T00:10:03.496Z,3.60
2018-08-02T00:11:03.533Z,4.10
2018-08-02T00:12:03.570Z,3.80
2018-08-02T00:13:03.609Z,3.70
2018-08-02T00:14:03.645Z,3.70
2018-08-02T00:15:03.684Z,3.50
2018-08-02T00:16:03.722Z,3.70
2018-08-02T00:17:03.761Z,3.70
2018-08-02T00:18:03.797Z,3.50
2018-08-02T00:19:03.835Z,3.70
2018-08-02T00:20:03.873Z,4.10
2018-08-02T00:21:03.911Z,3.60
2018-08-02T00:22:03.947Z,3.20
2018-08-02T00:23:03.989Z,3.90
2018-08-02T00:24:04.024Z,3.20
2018-08-02T00:25:04.063Z,3.80
2018-08-02T00:26:04.099Z,3.80
2018-08-02T00:27:04.137Z,4.00
2018-08-02T00:28:04.176Z,3.40
2018-08-02T00:29:04.213Z,4.00
2018-08-02T00:30:04.250Z,3.40
2018-08-02T00:31:04.288Z,3.80
2018-08-02T00:32:04.327Z,3.50
2018-08-02T00:33:04.363Z,4.20
2018-08-02T00:34:04.401Z,3.40
2018-08-02T00:35:04.443Z,3.50
2018-08-02T00:36:04.477Z,3.80
2018-08-02T00:37:04.516Z,3.80
2018-08-02T00:38:04.553Z,3.90
2018-08-02T00:39:04.592Z,3.80
2018-08-02T00:40:04.629Z,4.00
2018-08-02T00:41:04.667Z,4.00
2018-08-02T00:42:04.708Z,4.00
2018-08-02T00:43:04.742Z,3.80
2018-08-02T00:44:04.779Z,3.90
2018-08-02T00:45:04.818Z,3.60
2018-08-02T00:46:04.853Z,3.50
2018-08-02T00:47:04.893Z,3.90
2018-08-02T00:48:04.931Z,3.60
2018-08-02T00:49:04.968Z,3.70
2018-08-02T00:50:05.005Z,3.60
2018-08-02T00:51:05.044Z,3.90
2018-08-02T00:52:05.082Z,3.50
2018-08-02T00:53:05.124Z,3.60
2018-08-02T00:54:05.156Z,4.20
2018-08-02T00:55:05.194Z,4.20
2018-08-02T00:56:05.232Z,4.10
2018-08-02T00:57:05.269Z,3.60
2018-08-02T00:58:05.322Z,4.10
2018-08-02T00:59:05.345Z,3.90
2018-08-02T01:00:05.387Z,3.80
2018-08-02T01:01:05.471Z,4.80
2018-08-02T01:02:05.461Z,3.80
2018-08-02T01:03:05.495Z,4.00
2018-08-02T01:04:05.539Z,4.10
2018-08-02T01:05:05.572Z,4.60
2018-08-02T01:06:05.609Z,4.20
2018-08-02T01:07:05.647Z,4.00
2018-08-02T01:08:05.684Z,4.60
2018-08-02T01:09:05.722Z,4.00
2018-08-02T01:10:05.760Z,4.00
2018-08-02T01:11:05.797Z,3.90
2018-08-02T01:12:05.835Z,4.00
2018-08-02T01:13:05.873Z,3.70
2018-08-02T01:14:05.910Z,4.60
2018-08-02T01:15:05.947Z,4.40
2018-08-02T01:16:05.986Z,3.80
2018-08-02T01:17:06.024Z,3.90
2018-08-02T01:18:06.059Z,4.30
2018-08-02T01:19:06.098Z,3.80
2018-08-02T01:20:06.135Z,4.00
2018-08-02T01:21:06.173Z,4.50
2018-08-02T01:22:06.214Z,4.10
2018-08-02T01:23:06.250Z,4.40
2018-08-02T01:24:06.285Z,4.30
2018-08-02T01:25:06.323Z,4.30
2018-08-02T01:26:06.360Z,4.30
2018-08-02T01:27:06.399Z,4.00
2018-08-02T01:28:06.435Z,4.30
2018-08-02T01:29:06.474Z,3.80
2018-08-02T01:30:06.510Z,4.20
2018-08-02T01:31:06.555Z,4.30
2018-08-02T01:32:06.585Z,4.00
2018-08-02T01:33:06.623Z,3.60
2018-08-02T01:34:06.662Z,3.90
2018-08-02T01:35:06.701Z,4.70
2018-08-02T01:36:06.735Z,4.10
2018-08-02T01:37:06.772Z,4.10
2018-08-02T01:38:06.829Z,4.00
2018-08-02T01:39:06.848Z,4.20
2018-08-02T01:40:06.884Z,4.30
2018-08-02T01:41:06.920Z,4.00
2018-08-02T01:42:06.959Z,3.70
2018-08-02T01:43:06.995Z,4.20
2018-08-02T01:44:07.034Z,4.20
2018-08-02T01:45:07.073Z,4.10
2018-08-02T01:46:07.107Z,4.40
2018-08-02T01:47:07.145Z,4.30
2018-08-02T01:48:07.183Z,3.90
2018-08-02T01:49:07.224Z,4.70
2018-08-02T01:50:07.258Z,4.90
2018-08-02T01:51:07.293Z,4.50
2018-08-02T01:52:07.332Z,4.90
2018-08-02T01:53:07.381Z,4.60
2018-08-02T01:54:07.406Z,5.00
2018-08-02T01:55:07.443Z,4.50
2018-08-02T01:56:07.481Z,4.70
2018-08-02T01:57:07.520Z,4.80
2018-08-02T01:58:07.555Z,4.60
2018-08-02T01:59:07.592Z,4.60
2018-08-02T02:00:07.836Z,4.40
2018-08-02T02:01:07.667Z,4.80
2018-08-02T02:02:07.704Z,4.70
2018-08-02T02:03:07.742Z,4.60
2018-08-02T02:04:07.778Z,4.60
2018-08-02T02:05:07.840Z,4.70
2018-08-02T02:06:07.851Z,4.30
2018-08-02T02:07:07.893Z,4.20
2018-08-02T02:08:07.927Z,4.80
2018-08-02T02:09:07.984Z,4.70
2018-08-02T02:10:08.001Z,5.00
2018-08-02T02:11:08.038Z,4.20
2018-08-02T02:12:08.076Z,4.40
2018-08-02T02:13:08.113Z,4.20
2018-08-02T02:14:08.149Z,4.90
2018-08-02T02:15:08.188Z,5.30
2018-08-02T02:16:16.612Z,5.00
2018-08-02T02:17:08.262Z,4.70
2018-08-02T02:18:08.297Z,4.50
2018-08-02T02:19:08.335Z,4.50
2018-08-02T02:20:08.373Z,5.00
2018-08-02T02:22:08.446Z,4.50
2018-08-02T02:23:08.506Z,4.40
2018-08-02T02:24:08.522Z,5.20
2018-08-02T02:25:08.559Z,4.70
2018-08-02T02:26:08.598Z,4.60
2018-08-02T02:27:08.632Z,4.70
2018-08-02T02:28:08.668Z,4.90
2018-08-02T02:29:08.708Z,4.50
2018-08-02T02:30:08.744Z,4.20
2018-08-02T02:31:08.781Z,4.20
2018-08-02T02:32:08.819Z,4.80
2018-08-02T02:33:08.856Z,4.60
2018-08-02T02:34:08.897Z,4.80
2018-08-02T02:35:08.933Z,4.40
2018-08-02T02:36:08.966Z,4.30
2018-08-02T02:37:09.004Z,4.40
2018-08-02T02:38:09.041Z,4.40
2018-08-02T02:39:09.077Z,4.50
2018-08-02T02:40:09.115Z,4.50
2018-08-02T02:41:09.153Z,4.60
2018-08-02T02:42:09.191Z,4.30
2018-08-02T02:43:09.226Z,4.00
2018-08-02T02:44:09.264Z,5.20
2018-08-02T02:45:09.301Z,4.20
2018-08-02T02:46:09.338Z,4.40
2018-08-02T02:47:09.375Z,4.60
2018-08-02T02:48:09.413Z,4.60
2018-08-02T02:49:09.451Z,4.20
2018-08-02T02:50:09.489Z,4.60
2018-08-02T02:51:09.525Z,4.10
2018-08-02T02:52:09.567Z,4.70
2018-08-02T02:53:09.598Z,4.60
2018-08-02T02:54:09.636Z,4.60
2018-08-02T02:55:09.674Z,4.20
2018-08-02T02:56:09.710Z,5.00
2018-08-02T02:57:09.747Z,4.60
2018-08-02T02:58:09.783Z,4.80
2018-08-02T02:59:09.821Z,4.90
2018-08-02T03:00:09.859Z,4.80
2018-08-02T03:01:09.897Z,4.30
2018-08-02T03:02:09.933Z,4.60
2018-08-02T03:03:09.971Z,5.10
2018-08-02T03:04:10.006Z,4.80
2018-08-02T03:05:10.044Z,4.80
2018-08-02T03:06:10.081Z,4.70
2018-08-02T03:07:10.117Z,4.10
2018-08-02T03:08:10.156Z,4.60
2018-08-02T03:09:10.193Z,4.60
2018-08-02T03:10:10.236Z,4.60
2018-08-02T03:11:10.268Z,5.20
2018-08-02T03:12:10.303Z,4.30
2018-08-02T03:13:10.342Z,4.70
2018-08-02T03:14:10.377Z,4.50
2018-08-02T03:15:10.414Z,4.40
2018-08-02T03:16:10.452Z,4.50
2018-08-02T03:17:10.489Z,4.70
2018-08-02T03:18:10.525Z,4.50
2018-08-02T03:19:10.561Z,5.00
2018-08-02T03:20:10.600Z,4.50
2018-08-02T03:21:10.637Z,4.60
2018-08-02T03:22:10.674Z,4.40
2018-08-02T03:23:10.711Z,4.90
2018-08-02T03:24:10.747Z,4.70
2018-08-02T03:25:10.784Z,4.70
2018-08-02T03:26:10.819Z,4.50
2018-08-02T03:27:10.857Z,5.00
2018-08-02T03:28:10.894Z,4.30
2018-08-02T03:29:10.932Z,4.20
2018-08-02T03:30:10.968Z,4.70
2018-08-02T03:31:11.011Z,4.70
2018-08-02T03:32:11.046Z,5.10
2018-08-02T03:33:11.080Z,4.60
2018-08-02T03:34:11.115Z,4.80
2018-08-02T03:35:11.152Z,4.70
2018-08-02T03:36:11.191Z,5.00
2018-08-02T03:37:11.232Z,4.90
2018-08-02T03:38:11.263Z,5.00
2018-08-02T03:39:11.300Z,5.20
2018-08-02T03:40:11.338Z,4.70
2018-08-02T03:41:11.374Z,5.20
2018-08-02T03:42:11.409Z,4.90
2018-08-02T03:43:11.448Z,4.60
2018-08-02T03:44:11.490Z,4.40
2018-08-02T03:45:11.521Z,4.90
2018-08-02T03:46:11.558Z,4.90
2018-08-02T03:47:11.598Z,4.80
2018-08-02T03:48:11.670Z,4.90
2018-08-02T03:49:11.668Z,4.60
2018-08-02T03:50:11.705Z,4.60
2018-08-02T03:51:11.744Z,5.10
2018-08-02T03:52:11.778Z,4.80
2018-08-02T03:53:11.815Z,5.10
2018-08-02T03:54:11.852Z,4.70
2018-08-02T03:55:11.888Z,5.20
2018-08-02T03:56:11.925Z,5.00
2018-08-02T03:57:11.962Z,4.60
2018-08-02T03:58:11.998Z,4.60
2018-08-02T03:59:12.037Z,4.60
2018-08-02T04:00:12.071Z,4.40
2018-08-02T04:01:12.108Z,4.90
2018-08-02T04:02:12.145Z,5.10
2018-08-02T04:03:12.180Z,5.50
2018-08-02T04:04:12.218Z,5.10
2018-08-02T04:05:12.255Z,4.70
2018-08-02T04:06:12.290Z,4.60
2018-08-02T04:07:12.328Z,5.00
2018-08-02T04:08:12.364Z,5.30
2018-08-02T04:09:12.402Z,4.70
2018-08-02T04:10:12.437Z,4.90
2018-08-02T04:11:12.474Z,5.10
2018-08-02T04:12:12.511Z,5.10
2018-08-02T04:13:12.548Z,5.20
2018-08-02T04:14:12.584Z,5.00
2018-08-02T04:15:12.621Z,4.90
2018-08-02T04:16:12.658Z,4.50
2018-08-02T04:17:12.693Z,4.60
2018-08-02T04:18:12.732Z,5.00
2018-08-02T04:19:12.766Z,4.80
2018-08-02T04:20:12.803Z,5.00
2018-08-02T04:21:12.838Z,4.80
2018-08-02T04:22:12.875Z,5.10
2018-08-02T04:23:12.912Z,4.70
2018-08-02T04:24:12.949Z,5.50
2018-08-02T04:25:12.989Z,5.20
2018-08-02T04:26:13.021Z,5.40
2018-08-02T04:27:13.059Z,5.40
2018-08-02T04:28:13.094Z,5.30
2018-08-02T04:29:13.132Z,5.30
2018-08-02T04:30:13.170Z,5.10
2018-08-02T04:31:13.205Z,5.30
2018-08-02T04:32:13.240Z,5.40
2018-08-02T04:33:13.276Z,5.70
2018-08-02T04:34:13.313Z,4.50
2018-08-02T04:35:13.349Z,5.00
2018-08-02T04:36:13.387Z,5.40
2018-08-02T04:37:13.423Z,5.30
2018-08-02T04:38:13.466Z,5.50
2018-08-02T04:39:13.495Z,5.40
2018-08-02T04:40:13.534Z,5.20
2018-08-02T04:41:13.575Z,5.30
2018-08-02T04:42:13.665Z,5.30
2018-08-02T04:43:13.641Z,5.10
2018-08-02T04:44:13.677Z,5.80
2018-08-02T04:45:13.717Z,5.00
2018-08-02T04:46:13.750Z,5.90
2018-08-02T04:47:13.789Z,6.20
2018-08-02T04:48:13.823Z,5.20
2018-08-02T04:49:13.861Z,4.90
2018-08-02T04:50:13.896Z,5.50
2018-08-02T04:51:13.933Z,5.20
2018-08-02T04:52:13.971Z,5.60
2018-08-02T04:53:14.006Z,5.20
2018-08-02T04:54:14.041Z,5.30
2018-08-02T04:55:14.077Z,5.30
2018-08-02T04:56:14.115Z,4.80
2018-08-02T04:57:14.152Z,5.70
2018-08-02T04:58:14.188Z,5.60
2018-08-02T04:59:14.224Z,5.70
2018-08-02T05:00:14.260Z,5.50
2018-08-02T05:01:14.306Z,5.70
2018-08-02T05:02:14.332Z,5.40
2018-08-02T05:03:14.368Z,5.50
2018-08-02T05:04:14.404Z,5.00
2018-08-02T05:05:14.442Z,5.50
2018-08-02T05:06:14.476Z,5.40
2018-08-02T05:07:14.516Z,5.30
2018-08-02T05:08:14.599Z,6.10
2018-08-02T05:09:14.586Z,5.90
2018-08-02T05:10:14.623Z,5.50
2018-08-02T05:11:14.659Z,5.50
2018-08-02T05:12:14.695Z,5.40
2018-08-02T05:13:14.732Z,6.20
2018-08-02T05:14:14.767Z,5.30
2018-08-02T05:15:14.804Z,4.80
2018-08-02T05:16:14.839Z,5.50
2018-08-02T05:17:14.876Z,4.60
2018-08-02T05:18:14.913Z,5.90
2018-08-02T05:19:14.949Z,5.70
2018-08-02T05:20:14.986Z,5.20
2018-08-02T05:21:15.023Z,5.40
2018-08-02T05:22:15.082Z,5.60
2018-08-02T05:23:15.094Z,5.10
2018-08-02T05:24:15.131Z,5.60
2018-08-02T05:25:15.167Z,5.90
2018-08-02T05:26:15.224Z,6.00
2018-08-02T05:27:15.241Z,6.40
2018-08-02T05:28:15.277Z,5.70
2018-08-02T05:29:15.314Z,7.60
2018-08-02T05:30:15.350Z,5.70
2018-08-02T05:31:15.386Z,5.70
2018-08-02T05:32:15.422Z,6.20
2018-08-02T05:33:15.460Z,5.80
2018-08-02T05:34:15.561Z,5.00
2018-08-02T05:35:15.812Z,4.90
2018-08-02T05:36:15.988Z,6.00
2018-08-02T05:37:15.606Z,5.90
2018-08-02T05:38:15.641Z,5.80
2018-08-02T05:39:15.678Z,5.20
2018-08-02T05:40:15.715Z,5.40
2018-08-02T05:41:15.754Z,5.70
2018-08-02T05:42:15.790Z,5.90
2018-08-02T05:43:15.825Z,5.20
2018-08-02T05:44:15.861Z,5.50
2018-08-02T05:45:15.898Z,5.10
2018-08-02T05:46:15.934Z,6.20
2018-08-02T05:47:15.971Z,5.80
2018-08-02T05:48:16.008Z,6.10
2018-08-02T05:49:16.045Z,5.50
2018-08-02T05:50:16.081Z,6.30
2018-08-02T05:51:16.117Z,5.50
2018-08-02T05:52:16.160Z,6.00
2018-08-02T05:53:16.193Z,5.70
2018-08-02T05:54:16.228Z,6.10
2018-08-02T05:55:16.264Z,5.10
2018-08-02T05:56:16.302Z,6.10
2018-08-02T05:57:16.338Z,6.00
2018-08-02T05:58:16.375Z,5.90
2018-08-02T05:59:16.412Z,6.10
2018-08-02T06:00:16.449Z,6.40
2018-08-02T06:01:16.486Z,6.40
2018-08-02T06:02:16.521Z,5.60
2018-08-02T06:03:16.561Z,5.60
2018-08-02T06:04:16.596Z,5.40
2018-08-02T06:05:16.638Z,5.60
2018-08-02T06:06:16.670Z,5.20
2018-08-02T06:07:16.708Z,6.00
2018-08-02T06:08:16.745Z,5.50
2018-08-02T06:09:16.782Z,6.20
2018-08-02T06:10:16.820Z,6.20
2018-08-02T06:11:16.857Z,6.20
2018-08-02T06:12:16.925Z,5.80
2018-08-02T06:13:16.932Z,6.70
2018-08-02T06:14:16.968Z,6.00
2018-08-02T06:15:17.005Z,6.40
2018-08-02T06:16:17.042Z,7.40
2018-08-02T06:17:17.081Z,6.30
2018-08-02T06:18:17.117Z,6.00
2018-08-02T06:19:17.154Z,5.60
2018-08-02T06:20:17.193Z,6.50
2018-08-02T06:21:17.229Z,5.90
2018-08-02T06:22:17.267Z,6.10
2018-08-02T06:23:17.306Z,5.10
2018-08-02T06:24:17.403Z,5.70
2018-08-02T06:25:17.381Z,5.60
2018-08-02T06:26:17.419Z,5.60
2018-08-02T06:27:17.456Z,5.90
2018-08-02T06:28:17.498Z,6.10
2018-08-02T06:29:17.542Z,6.00
2018-08-02T06:30:17.608Z,5.80
2018-08-02T06:31:17.612Z,5.30
2018-08-02T06:32:17.655Z,5.20
2018-08-02T06:33:17.685Z,5.20
2018-08-02T06:34:17.722Z,4.90
2018-08-02T06:35:17.760Z,4.90
2018-08-02T06:36:17.799Z,5.20
2018-08-02T06:37:17.842Z,5.20
2018-08-02T06:38:17.878Z,4.90
2018-08-02T06:39:17.917Z,4.90
2018-08-02T06:40:17.953Z,5.50
2018-08-02T06:41:17.991Z,3.90
2018-08-02T06:42:18.029Z,4.50
2018-08-02T06:43:18.068Z,4.60
2018-08-02T06:44:18.109Z,4.70
2018-08-02T06:45:18.146Z,5.10
2018-08-02T06:46:18.184Z,4.30
2018-08-02T06:47:18.223Z,4.80
2018-08-02T06:48:18.262Z,4.60
2018-08-02T06:49:18.303Z,4.40
2018-08-02T06:50:18.343Z,4.40
2018-08-02T06:51:18.378Z,3.90
2018-08-02T06:52:18.417Z,4.30
2018-08-02T06:53:18.457Z,4.20
2018-08-02T06:54:18.502Z,4.20
2018-08-02T06:55:18.736Z,4.00
2018-08-02T06:56:18.573Z,3.80
2018-08-02T06:57:18.612Z,3.80
2018-08-02T06:58:18.875Z,4.40
2018-08-02T06:59:18.690Z,4.60
2018-08-02T07:00:18.729Z,4.70
2018-08-02T07:01:18.768Z,4.00
2018-08-02T07:02:18.806Z,4.60
2018-08-02T07:03:18.849Z,4.10
2018-08-02T07:04:18.888Z,4.60
2018-08-02T07:05:18.924Z,4.10
2018-08-02T07:06:18.964Z,4.30
2018-08-02T07:07:19.006Z,4.40
2018-08-02T07:08:19.041Z,4.00
2018-08-02T07:09:19.083Z,3.90
2018-08-02T07:10:19.117Z,4.20
2018-08-02T07:11:19.158Z,4.00
2018-08-02T07:12:19.221Z,4.20
2018-08-02T07:13:19.236Z,4.40
2018-08-02T07:14:19.275Z,4.40
2018-08-02T07:15:19.315Z,4.10
2018-08-02T07:16:19.354Z,4.60
2018-08-02T07:17:19.415Z,4.20
2018-08-02T07:18:19.431Z,4.60
2018-08-02T07:19:19.471Z,3.50
2018-08-02T07:20:19.510Z,4.50
2018-08-02T07:21:19.549Z,4.10
2018-08-02T07:22:19.613Z,3.70
2018-08-02T07:23:19.628Z,3.60
2018-08-02T07:24:19.666Z,4.10
2018-08-02T07:25:19.706Z,4.40
2018-08-02T07:26:19.771Z,4.20
2018-08-02T07:27:19.785Z,4.10
2018-08-02T07:28:19.825Z,3.90
2018-08-02T07:29:19.866Z,4.10
2018-08-02T07:30:19.905Z,4.20
2018-08-02T07:31:19.943Z,3.60
2018-08-02T07:32:20.001Z,3.60
2018-08-02T07:33:20.353Z,3.90
2018-08-02T07:34:20.062Z,3.60
2018-08-02T07:35:20.101Z,3.50
2018-08-02T07:36:20.142Z,3.70
2018-08-02T07:37:20.182Z,4.00
2018-08-02T07:38:20.222Z,3.60
2018-08-02T07:39:20.262Z,4.00
2018-08-02T07:40:20.301Z,3.90
2018-08-02T07:41:20.342Z,3.90
2018-08-02T07:42:20.383Z,3.30
2018-08-02T07:43:20.599Z,3.40
2018-08-02T07:44:20.462Z,3.50
2018-08-02T07:45:20.502Z,3.50
2018-08-02T07:46:20.541Z,3.70
2018-08-02T07:47:20.584Z,3.20
2018-08-02T07:48:20.624Z,3.40
2018-08-02T07:49:20.663Z,3.40
2018-08-02T07:50:20.910Z,3.60
2018-08-02T07:51:20.743Z,3.70
2018-08-02T07:52:20.784Z,4.00
2018-08-02T07:53:20.824Z,3.60
2018-08-02T07:54:20.865Z,3.80
2018-08-02T07:55:20.907Z,4.20
2018-08-02T07:56:21.140Z,3.90
2018-08-02T07:57:20.986Z,3.70
2018-08-02T07:58:21.027Z,3.30
2018-08-02T07:59:21.067Z,3.60
2018-08-02T08:00:21.112Z,3.60
2018-08-02T08:01:21.152Z,4.00
2018-08-02T08:02:21.189Z,3.60
2018-08-02T08:03:21.231Z,3.80
2018-08-02T08:04:21.273Z,3.60
2018-08-02T08:05:21.313Z,3.90
2018-08-02T08:06:21.353Z,3.60
2018-08-02T08:07:21.397Z,3.20
2018-08-02T08:08:21.435Z,3.50
2018-08-02T08:09:21.520Z,3.80
2018-08-02T08:10:21.517Z,3.40
2018-08-02T08:11:21.560Z,3.20
2018-08-02T08:12:21.599Z,3.10
2018-08-02T08:13:21.641Z,3.30
2018-08-02T08:14:21.682Z,2.70
2018-08-02T08:15:21.723Z,3.20
2018-08-02T08:16:21.803Z,3.10
2018-08-02T08:17:21.806Z,3.10
2018-08-02T08:18:21.847Z,3.50
2018-08-02T08:19:21.890Z,3.20
2018-08-02T08:20:21.986Z,3.20
2018-08-02T08:21:21.972Z,3.30
2018-08-02T08:22:22.014Z,3.70
2018-08-02T08:23:22.110Z,3.30
2018-08-02T08:24:22.096Z,3.60
2018-08-02T08:25:22.138Z,3.20
2018-08-02T08:26:22.179Z,3.70
2018-08-02T08:27:22.220Z,4.00
2018-08-02T08:28:22.262Z,3.90
2018-08-02T08:29:22.365Z,3.60
2018-08-02T08:30:22.346Z,3.50
2018-08-02T08:31:22.390Z,3.50
2018-08-02T08:32:22.519Z,3.60
2018-08-02T08:33:22.471Z,3.70
2018-08-02T08:34:22.512Z,3.60
2018-08-02T08:35:22.556Z,3.60
2018-08-02T08:36:22.686Z,3.00
2018-08-02T08:37:24.552Z,3.40
2018-08-02T08:38:22.681Z,3.70
2018-08-02T08:39:22.724Z,3.50
2018-08-02T08:40:22.766Z,3.30
2018-08-02T08:41:22.807Z,3.60
2018-08-02T08:42:22.851Z,3.40
2018-08-02T08:43:22.927Z,3.70
2018-08-02T08:44:22.935Z,3.50
2018-08-02T08:45:22.976Z,3.60
2018-08-02T08:46:23.018Z,3.90
2018-08-02T08:47:23.122Z,3.70
2018-08-02T08:48:23.103Z,3.80
2018-08-02T08:49:23.146Z,3.90
2018-08-02T08:50:23.185Z,3.70
2018-08-02T08:51:23.228Z,3.70
2018-08-02T08:52:23.300Z,3.60
2018-08-02T08:53:23.313Z,3.60
2018-08-02T08:54:23.356Z,3.40
2018-08-02T08:55:23.400Z,3.90
2018-08-02T08:56:23.442Z,3.60
2018-08-02T08:57:23.482Z,3.40
2018-08-02T08:58:23.523Z,3.20
2018-08-02T08:59:23.564Z,3.50
2018-08-02T09:00:23.607Z,3.60
2018-08-02T09:01:23.648Z,3.90
2018-08-02T09:02:23.693Z,4.00
2018-08-02T09:03:23.742Z,3.80
2018-08-02T09:04:23.776Z,3.40
2018-08-02T09:05:23.817Z,3.20
2018-08-02T09:06:23.860Z,3.40
2018-08-02T09:07:23.901Z,3.70
2018-08-02T09:08:23.946Z,3.10
2018-08-02T09:09:24.003Z,3.40
2018-08-02T09:10:24.069Z,3.50
2018-08-02T09:11:24.073Z,3.20
2018-08-02T09:12:24.116Z,2.90
2018-08-02T09:13:24.160Z,3.30
2018-08-02T09:14:24.201Z,3.80
2018-08-02T09:15:24.245Z,3.70
2018-08-02T09:16:24.289Z,3.80
2018-08-02T09:17:24.337Z,3.50
2018-08-02T09:18:24.375Z,3.90
2018-08-02T09:19:24.419Z,3.30
2018-08-02T09:20:24.458Z,3.50
2018-08-02T09:21:24.501Z,3.60
2018-08-02T09:22:24.545Z,3.50
2018-08-02T09:23:24.590Z,3.60
2018-08-02T09:24:24.632Z,3.80
2018-08-02T09:25:24.675Z,3.30
2018-08-02T09:26:24.717Z,3.90
2018-08-02T09:27:24.761Z,3.80
2018-08-02T09:28:24.805Z,3.50
2018-08-02T09:29:24.852Z,3.40
2018-08-02T09:30:24.891Z,4.20
2018-08-02T09:31:24.935Z,3.70
2018-08-02T09:32:25.039Z,3.90
2018-08-02T09:33:25.022Z,3.60
2018-08-02T09:34:25.064Z,3.60
2018-08-02T09:35:25.107Z,3.90
2018-08-02T09:36:25.150Z,3.70
2018-08-02T09:37:25.192Z,4.20
2018-08-02T09:38:25.235Z,4.30
2018-08-02T09:39:25.278Z,3.80
2018-08-02T09:40:25.320Z,3.90
2018-08-02T09:41:25.366Z,3.80
2018-08-02T09:42:25.406Z,3.70
2018-08-02T09:43:25.450Z,4.00
2018-08-02T09:44:25.492Z,4.20
2018-08-02T09:45:25.537Z,4.20
2018-08-02T09:46:25.625Z,3.90
2018-08-02T09:47:25.620Z,4.00
2018-08-02T09:48:25.664Z,4.20
2018-08-02T09:49:25.707Z,3.80
2018-08-02T09:50:25.748Z,4.00
2018-08-02T09:51:25.793Z,4.50
2018-08-02T09:52:25.838Z,3.90
2018-08-02T09:53:25.878Z,3.80
2018-08-02T09:54:25.924Z,4.70
2018-08-02T09:55:25.965Z,4.10
2018-08-02T09:56:26.008Z,4.30
2018-08-02T09:57:26.051Z,4.00
2018-08-02T09:58:26.094Z,4.60
2018-08-02T09:59:26.137Z,4.30
2018-08-02T10:00:26.180Z,3.90
2018-08-02T10:01:26.224Z,4.30
2018-08-02T10:02:26.266Z,3.60
2018-08-02T10:03:26.310Z,4.20
2018-08-02T10:04:26.353Z,3.80
2018-08-02T10:05:26.397Z,3.90
2018-08-02T10:06:26.438Z,3.80
2018-08-02T10:07:26.481Z,4.00
2018-08-02T10:08:26.525Z,3.60
2018-08-02T10:09:26.570Z,3.50
2018-08-02T10:10:26.612Z,3.90
2018-08-02T10:11:26.661Z,4.30
2018-08-02T10:12:26.701Z,3.40
2018-08-02T10:13:26.744Z,2.90
2018-08-02T10:14:26.787Z,2.90
2018-08-02T10:15:27.159Z,3.40
2018-08-02T10:16:26.877Z,3.50
2018-08-02T10:17:26.920Z,3.50
2018-08-02T10:18:26.963Z,3.40
2018-08-02T10:19:27.008Z,3.50
2018-08-02T10:20:27.053Z,3.10
2018-08-02T10:21:27.097Z,2.90
2018-08-02T10:22:27.202Z,3.30
2018-08-02T10:23:27.192Z,2.90
2018-08-02T10:24:27.237Z,2.50
2018-08-02T10:25:27.283Z,2.30
2018-08-02T10:26:27.331Z,2.50
2018-08-02T10:27:27.379Z,2.30
2018-08-02T10:28:27.427Z,2.50
2018-08-02T10:29:27.475Z,2.60
2018-08-02T10:30:27.523Z,2.70
2018-08-02T10:31:27.573Z,2.40
2018-08-02T10:32:27.623Z,2.50
2018-08-02T10:33:27.673Z,2.40
2018-08-02T10:34:27.720Z,2.20
2018-08-02T10:35:27.772Z,2.50
2018-08-02T10:36:27.822Z,2.40
2018-08-02T10:37:27.874Z,2.30
2018-08-02T10:38:27.927Z,2.10
2018-08-02T10:39:27.975Z,2.20
2018-08-02T10:40:28.027Z,2.60
2018-08-02T10:41:28.079Z,2.60
2018-08-02T10:42:28.130Z,2.20
2018-08-02T10:43:28.183Z,2.50
2018-08-02T10:44:28.267Z,2.20
2018-08-02T10:45:28.286Z,1.90
2018-08-02T10:46:28.338Z,2.40
2018-08-02T10:47:28.391Z,2.10
2018-08-02T10:48:28.443Z,2.40
2018-08-02T10:49:28.497Z,2.50
2018-08-02T10:50:28.548Z,2.30
2018-08-02T10:51:28.602Z,2.30
2018-08-02T10:52:28.655Z,2.20
2018-08-02T10:53:28.714Z,2.10
2018-08-02T10:54:28.760Z,2.00
2018-08-02T10:55:28.814Z,2.00
2018-08-02T10:56:28.870Z,2.40
2018-08-02T10:57:28.921Z,2.00
2018-08-02T10:58:28.975Z,2.30
2018-08-02T10:59:29.028Z,1.90
2018-08-02T11:00:29.084Z,1.90
2018-08-02T11:01:29.176Z,2.00
2018-08-02T11:02:29.189Z,1.80
2018-08-02T11:03:29.244Z,1.70
2018-08-02T11:04:29.302Z,1.80
2018-08-02T11:05:29.352Z,1.90
2018-08-02T11:06:29.405Z,2.00
2018-08-02T11:07:29.458Z,1.80
2018-08-02T11:08:29.512Z,1.90
2018-08-02T11:09:29.584Z,1.60
2018-08-02T11:10:29.620Z,2.10
2018-08-02T11:11:29.675Z,2.00
2018-08-02T11:12:29.766Z,2.30
2018-08-02T11:13:29.785Z,1.70
2018-08-02T11:14:29.837Z,2.00
2018-08-02T11:15:29.938Z,1.70
2018-08-02T11:16:29.945Z,1.60
2018-08-02T11:17:29.999Z,2.10
2018-08-02T11:18:30.053Z,1.70
2018-08-02T11:19:30.109Z,2.10
2018-08-02T11:20:30.162Z,2.30
2018-08-02T11:21:30.217Z,2.00
2018-08-02T11:22:30.271Z,1.80
2018-08-02T11:23:30.325Z,2.10
2018-08-02T11:24:30.381Z,1.90
2018-08-02T11:25:30.435Z,2.20
2018-08-02T11:26:30.488Z,1.80
2018-08-02T11:27:30.544Z,1.90
2018-08-02T11:28:30.598Z,2.10
2018-08-02T11:29:30.654Z,1.90
2018-08-02T11:30:30.708Z,2.10
2018-08-02T11:31:30.765Z,2.00
2018-08-02T11:32:30.818Z,2.10
2018-08-02T11:33:30.874Z,2.10
2018-08-02T11:34:30.928Z,2.20
2018-08-02T11:35:30.984Z,1.90
2018-08-02T11:36:31.039Z,1.80
2018-08-02T11:37:31.098Z,1.80
2018-08-02T11:38:31.147Z,2.20
2018-08-02T11:39:31.203Z,1.80
2018-08-02T11:40:31.260Z,1.90
2018-08-02T11:41:31.314Z,1.80
2018-08-02T11:42:31.372Z,1.80
2018-08-02T11:43:31.424Z,1.80
2018-08-02T11:44:31.479Z,1.80
2018-08-02T11:45:31.535Z,2.20
2018-08-02T11:46:31.590Z,2.10
2018-08-02T11:47:31.669Z,1.60
2018-08-02T11:48:31.700Z,1.90
2018-08-02T11:49:31.757Z,1.90
2018-08-02T11:50:31.811Z,1.80
2018-08-02T11:52:31.922Z,1.80
2018-08-02T11:53:31.979Z,2.30
2018-08-02T11:54:32.033Z,2.10
2018-08-02T11:55:32.088Z,1.80
2018-08-02T11:56:32.252Z,1.90
2018-08-02T11:57:32.343Z,1.90
2018-08-02T11:58:32.477Z,1.80
2018-08-02T11:59:32.311Z,1.90
2018-08-02T12:00:32.366Z,1.70
2018-08-02T12:01:32.420Z,1.70
2018-08-02T12:02:32.476Z,1.70
2018-08-02T12:03:32.530Z,1.70
2018-08-02T12:04:32.586Z,1.80
2018-08-02T12:05:32.643Z,2.00
2018-08-02T12:06:32.697Z,1.50
2018-08-02T12:07:32.750Z,1.80
2018-08-02T12:08:32.806Z,2.00
2018-08-02T12:09:32.945Z,2.00
2018-08-02T12:10:32.916Z,2.00
2018-08-02T12:11:32.970Z,1.40
2018-08-02T12:12:33.026Z,1.80
2018-08-02T12:13:33.090Z,1.70
2018-08-02T12:14:33.134Z,2.00
2018-08-02T12:15:33.189Z,1.50
2018-08-02T12:16:33.368Z,1.60
2018-08-02T12:17:33.301Z,1.90
2018-08-02T12:18:33.380Z,1.70
2018-08-02T12:19:33.454Z,1.60
2018-08-02T12:20:33.497Z,1.50
2018-08-02T12:21:33.520Z,1.60
2018-08-02T12:22:33.575Z,1.60
2018-08-02T12:23:33.646Z,1.90
2018-08-02T12:25:33.743Z,1.40
2018-08-02T12:26:33.796Z,1.60
2018-08-02T12:27:33.854Z,1.90
2018-08-02T12:28:33.909Z,1.60
2018-08-02T12:29:33.963Z,1.80
2018-08-02T12:30:34.043Z,1.50
2018-08-02T12:31:34.074Z,1.60
2018-08-02T12:32:34.133Z,1.80
2018-08-02T12:33:34.189Z,1.80
2018-08-02T12:34:34.267Z,1.50
2018-08-02T12:35:34.297Z,1.40
2018-08-02T12:36:34.371Z,1.40
2018-08-02T12:37:34.409Z,1.80
2018-08-02T12:38:34.463Z,1.60
2018-08-02T12:39:34.527Z,1.50
2018-08-02T12:40:34.576Z,1.60
2018-08-02T12:41:34.699Z,1.40
2018-08-02T12:42:34.698Z,1.50
2018-08-02T12:43:34.744Z,1.30
2018-08-02T12:44:34.799Z,1.50
2018-08-02T12:45:34.858Z,1.30
2018-08-02T12:46:34.909Z,1.40
2018-08-02T12:47:34.966Z,1.60
2018-08-02T12:48:35.020Z,1.40
2018-08-02T12:49:35.080Z,1.50
2018-08-02T12:50:35.202Z,1.70
2018-08-02T12:51:35.187Z,3.10
2018-08-02T12:52:35.296Z,1.80
2018-08-02T12:53:35.301Z,1.30
2018-08-02T12:54:35.369Z,1.60
2018-08-02T12:55:35.457Z,1.30
2018-08-02T12:56:35.468Z,1.30
2018-08-02T12:57:35.577Z,1.30
2018-08-02T12:58:35.584Z,1.40
2018-08-02T12:59:35.635Z,1.40
2018-08-02T13:00:35.691Z,1.20
2018-08-02T13:01:35.750Z,1.30
2018-08-02T13:02:35.806Z,1.20
2018-08-02T13:03:35.991Z,1.40
2018-08-02T13:04:35.915Z,1.40
2018-08-02T13:05:35.971Z,1.40
2018-08-02T13:06:36.027Z,1.40
2018-08-02T13:07:36.083Z,1.40
2018-08-02T13:08:36.139Z,1.20
2018-08-02T13:09:36.197Z,1.30
2018-08-02T13:10:36.380Z,1.10
2018-08-02T13:11:36.328Z,1.20
2018-08-02T13:12:36.387Z,1.20
2018-08-02T13:13:36.455Z,1.10
2018-08-02T13:14:36.527Z,1.00
2018-08-02T13:15:36.601Z,1.20
2018-08-02T13:16:36.616Z,1.10
2018-08-02T13:17:36.668Z,1.30
2018-08-02T13:18:36.722Z,1.10
2018-08-02T13:19:36.781Z,1.10
2018-08-02T13:20:36.837Z,1.30
2018-08-02T13:22:36.950Z,1.20